createdAt,value
2023-04-13T00:04:13.534Z,3.60
2023-04-13T00:09:12.988Z,4.80
2023-04-13T00:14:12.139Z,4.13
2023-04-13T00:19:13.089Z,3.50
2023-04-13T00:24:11.956Z,3.85
2023-04-13T00:29:10.625Z,3.50
2023-04-13T00:34:09.326Z,3.70
2023-04-13T00:39:09.465Z,3.67
2023-04-13T00:44:10.726Z,4.40
2023-04-13T00:49:09.556Z,3.30
2023-04-13T00:54:10.796Z,3.42
2023-04-13T00:59:12.599Z,4.25
2023-04-13T01:04:11.460Z,3.20
2023-04-13T01:09:16.580Z,3.22
2023-04-13T01:14:23.723Z,3.03
2023-04-13T01:19:41.442Z,3.70
2023-04-13T01:24:58.593Z,3.83
2023-04-13T01:30:01.444Z,3.13
2023-04-13T01:35:01.172Z,3.15
2023-04-13T01:40:00.396Z,2.90
2023-04-13T01:45:17.417Z,3.25
2023-04-13T01:50:25.948Z,3.45
2023-04-13T01:55:42.976Z,3.00
2023-04-13T02:00:44.585Z,3.03
2023-04-13T02:05:45.051Z,3.20
2023-04-13T02:10:44.120Z,4.20
2023-04-13T02:15:48.014Z,3.83
2023-04-13T02:20:46.976Z,3.35
2023-04-13T02:25:48.232Z,3.08
2023-04-13T02:30:49.788Z,2.72
2023-04-13T02:35:49.023Z,3.00
2023-04-13T02:40:49.518Z,3.55
2023-04-13T02:45:49.981Z,2.85
2023-04-13T02:50:51.246Z,2.92
2023-04-13T02:55:55.666Z,3.45
2023-04-13T03:00:56.753Z,3.13
2023-04-13T03:05:56.646Z,4.38
2023-04-13T03:11:11.014Z,3.53
2023-04-13T03:16:17.834Z,4.47
2023-04-13T03:21:17.296Z,5.07
2023-04-13T03:26:27.689Z,6.90
2023-04-13T03:31:33.495Z,4.97
2023-04-13T03:36:32.925Z,4.03
2023-04-13T03:41:32.212Z,3.90
2023-04-13T03:46:33.349Z,5.47
2023-04-13T03:51:38.127Z,5.68
2023-04-13T03:56:37.035Z,5.38
2023-04-13T04:01:37.814Z,5.50
2023-04-13T04:06:37.646Z,7.70
2023-04-13T04:11:44.735Z,6.70
2023-04-13T04:16:46.309Z,5.72
2023-04-13T04:21:47.545Z,6.73
2023-04-13T04:26:50.633Z,5.65
2023-04-13T04:31:53.797Z,4.60
2023-04-13T04:36:57.411Z,4.93
2023-04-13T04:42:04.259Z,5.25
2023-04-13T04:47:06.142Z,8.93
2023-04-13T04:52:13.036Z,9.57
2023-04-13T04:57:14.667Z,7.82
2023-04-13T05:02:16.788Z,4.35
2023-04-13T05:07:17.901Z,4.65
2023-04-13T05:12:17.753Z,7.00
2023-04-13T05:17:20.292Z,6.35
2023-04-13T05:22:19.390Z,5.32
2023-04-13T05:27:23.936Z,4.93
2023-04-13T05:32:27.166Z,4.97
2023-04-13T05:37:29.065Z,5.45
2023-04-13T05:42:28.122Z,4.90
2023-04-13T05:47:30.469Z,5.07
2023-04-13T05:52:34.880Z,5.28
2023-04-13T05:57:34.779Z,3.15
2023-04-13T06:02:42.054Z,2.60
2023-04-13T06:07:44.964Z,2.67
2023-04-13T06:12:44.706Z,2.65
2023-04-13T06:17:45.833Z,3.55
2023-04-13T06:22:44.786Z,3.28
2023-04-13T06:27:44.634Z,2.50
2023-04-13T06:32:43.546Z,2.70
2023-04-13T06:37:45.497Z,2.78
2023-04-13T06:42:49.824Z,2.30
2023-04-13T06:48:08.910Z,3.75
2023-04-13T06:53:11.409Z,2.53
2023-04-13T06:58:11.820Z,2.50
2023-04-13T07:03:10.946Z,2.97
2023-04-13T07:08:11.861Z,2.13
2023-04-13T07:13:12.807Z,2.40
2023-04-13T07:18:13.055Z,2.97
2023-04-13T07:23:13.393Z,2.97
2023-04-13T07:28:12.740Z,3.75
2023-04-13T07:33:12.284Z,2.50
2023-04-13T07:38:11.483Z,2.50
2023-04-13T07:43:12.022Z,3.03
2023-04-13T07:48:13.037Z,2.63
2023-04-13T07:53:13.217Z,2.80
2023-04-13T07:58:14.327Z,2.75
2023-04-13T08:03:13.580Z,2.90
2023-04-13T08:08:12.719Z,3.20
2023-04-13T08:13:15.522Z,3.05
2023-04-13T08:18:15.678Z,2.83
2023-04-13T08:23:14.804Z,3.53
2023-04-13T08:28:15.178Z,3.60
2023-04-13T08:33:14.352Z,3.25
2023-04-13T08:38:14.276Z,3.20
2023-04-13T08:43:21.274Z,3.10
2023-04-13T08:48:23.166Z,2.95
2023-04-13T08:53:23.337Z,3.28
2023-04-13T08:58:28.502Z,2.95
2023-04-13T09:03:31.086Z,2.97
2023-04-13T09:13:37.390Z,3.53
2023-04-13T09:18:36.527Z,2.75
2023-04-13T09:23:41.149Z,6.95
2023-04-13T09:28:50.880Z,4.00
2023-04-13T09:33:51.272Z,3.15
2023-04-13T09:38:53.708Z,3.03
2023-04-13T09:43:54.060Z,2.33
2023-04-13T09:49:00.477Z,2.28
2023-04-13T09:53:59.647Z,3.38
2023-04-13T09:59:00.135Z,1.63
2023-04-13T10:03:59.665Z,2.22
2023-04-13T10:09:03.387Z,1.83
2023-04-13T10:14:09.235Z,2.22
2023-04-13T10:19:12.625Z,1.90
2023-04-13T10:24:13.308Z,1.48
2023-04-13T10:29:14.923Z,1.65
2023-04-13T10:34:31.626Z,1.10
2023-04-13T10:39:32.559Z,1.27
2023-04-13T10:44:44.400Z,0.85
2023-04-13T10:49:44.131Z,1.10
2023-04-13T10:54:44.531Z,0.85
2023-04-13T10:59:58.150Z,1.02
2023-04-13T11:04:58.663Z,0.70
2023-04-13T11:15:01.753Z,0.98
2023-04-13T11:20:09.973Z,0.73
2023-04-13T11:25:10.782Z,1.30
2023-04-13T11:30:13.358Z,0.80
2023-04-13T11:35:16.676Z,0.98
2023-04-13T11:40:21.517Z,2.25
2023-04-13T11:45:23.494Z,1.48
2023-04-13T11:50:22.900Z,1.40
2023-04-13T11:55:24.025Z,1.17
2023-04-13T12:00:26.685Z,1.10
2023-04-13T12:05:29.214Z,1.27
2023-04-13T12:10:39.202Z,1.02
2023-04-13T12:16:05.278Z,1.23
2023-04-13T12:21:06.557Z,1.40
2023-04-13T12:31:12.458Z,1.83
2023-04-13T12:36:11.856Z,1.00
2023-04-13T12:41:11.500Z,1.10
2023-04-13T12:51:11.801Z,1.88
2023-04-13T12:56:11.123Z,1.13
2023-04-13T13:01:09.952Z,1.23
2023-04-13T13:06:10.385Z,1.10
2023-04-13T13:11:09.313Z,1.00
2023-04-13T13:16:08.455Z,0.93
2023-04-13T13:21:07.443Z,1.73
2023-04-13T13:26:23.314Z,1.50
2023-04-13T13:31:23.742Z,0.77
2023-04-13T13:36:22.555Z,1.00
2023-04-13T13:41:23.630Z,1.10
2023-04-13T13:46:22.796Z,1.50
2023-04-13T13:51:22.905Z,0.80
2023-04-13T13:56:23.478Z,0.80
2023-04-13T14:01:22.361Z,1.33
2023-04-13T14:06:21.453Z,2.33
2023-04-13T14:11:20.392Z,1.05
2023-04-13T14:16:20.986Z,2.17
2023-04-13T14:21:21.636Z,1.23
2023-04-13T14:26:20.804Z,1.10
2023-04-13T14:31:21.271Z,0.90
2023-04-13T14:41:18.539Z,1.05
2023-04-13T14:46:17.488Z,1.20
2023-04-13T14:51:18.745Z,1.10
2023-04-13T14:56:18.056Z,1.25
2023-04-13T15:01:18.047Z,1.20
2023-04-13T15:06:19.035Z,1.15
2023-04-13T15:11:17.718Z,0.93
2023-04-13T15:16:17.013Z,1.33
2023-04-13T15:21:15.782Z,0.90
2023-04-13T15:26:19.296Z,1.13
2023-04-13T15:31:19.429Z,0.90
2023-04-13T15:36:19.143Z,0.82
2023-04-13T15:41:20.094Z,2.30
2023-04-13T15:46:18.858Z,0.90
2023-04-13T15:51:17.629Z,1.20
2023-04-13T15:56:16.605Z,3.22
2023-04-13T16:01:17.016Z,3.22
2023-04-13T16:06:15.672Z,1.58
2023-04-13T16:11:14.376Z,6.20
2023-04-13T16:16:15.083Z,7.35
2023-04-13T16:26:17.890Z,3.15
2023-04-13T16:31:17.135Z,6.20
2023-04-13T16:36:17.333Z,7.53
2023-04-13T16:41:16.933Z,8.27
2023-04-13T16:46:16.383Z,5.60
2023-04-13T16:51:17.189Z,3.90
2023-04-13T16:56:17.382Z,3.58
2023-04-13T17:01:16.249Z,5.43
2023-04-13T17:06:15.222Z,9.68
2023-04-13T17:11:13.956Z,4.93
2023-04-13T17:16:14.240Z,2.85
2023-04-13T17:21:13.759Z,3.97
2023-04-13T17:26:12.553Z,10.07
2023-04-13T17:31:11.473Z,6.57
2023-04-13T17:36:11.767Z,9.63
2023-04-13T17:41:11.130Z,20.33
2023-04-13T17:46:09.995Z,14.88
2023-04-13T17:51:11.874Z,14.70
2023-04-13T17:56:15.789Z,10.38
2023-04-13T18:01:14.706Z,9.57
2023-04-13T18:06:15.056Z,11.50
2023-04-13T18:11:16.831Z,11.70
2023-04-13T18:16:15.875Z,11.52
2023-04-13T18:21:19.352Z,12.30
2023-04-13T18:26:18.261Z,11.10
2023-04-13T18:31:17.147Z,10.73
2023-04-13T18:36:17.839Z,8.90
2023-04-13T18:41:16.649Z,7.30
2023-04-13T18:46:15.604Z,7.03
2023-04-13T18:51:16.787Z,6.47
2023-04-13T18:56:17.068Z,16.55
2023-04-13T19:01:17.474Z,7.53
2023-04-13T19:06:16.562Z,5.75
2023-04-13T19:11:17.909Z,4.28
2023-04-13T19:16:16.792Z,4.40
2023-04-13T19:21:15.758Z,4.95
2023-04-13T19:26:14.412Z,4.18
2023-04-13T19:31:14.812Z,4.97
2023-04-13T19:36:14.909Z,5.20
2023-04-13T19:41:14.137Z,4.45
2023-04-13T19:46:14.702Z,5.78
2023-04-13T19:51:13.491Z,3.83
2023-04-13T19:56:12.335Z,4.05
2023-04-13T20:01:13.650Z,5.30
2023-04-13T20:06:14.190Z,4.13
2023-04-13T20:11:13.014Z,4.13
2023-04-13T20:16:12.130Z,3.72
2023-04-13T20:21:11.012Z,3.90
2023-04-13T20:26:11.189Z,4.50
2023-04-13T20:31:10.360Z,4.65
2023-04-13T20:36:09.417Z,8.00
2023-04-13T20:41:08.226Z,34.17
2023-04-13T20:46:10.109Z,8.07
2023-04-13T20:51:09.842Z,11.10
2023-04-13T20:56:09.105Z,5.85
2023-04-13T21:01:09.484Z,7.32
2023-04-13T21:06:08.467Z,6.65
2023-04-13T21:11:07.320Z,6.43
2023-04-13T21:16:08.700Z,4.22
2023-04-13T21:21:09.334Z,3.78
2023-04-13T21:26:08.340Z,6.22
2023-04-13T21:31:07.523Z,3.83
2023-04-13T21:41:16.042Z,3.63
2023-04-13T21:46:16.438Z,4.32
2023-04-13T21:51:16.854Z,4.57
2023-04-13T21:56:17.542Z,4.05
2023-04-13T22:01:16.568Z,3.63
2023-04-13T22:06:16.889Z,3.95
2023-04-13T22:11:16.121Z,4.90
2023-04-13T22:16:15.075Z,3.13
2023-04-13T22:21:13.947Z,4.32
2023-04-13T22:26:14.258Z,3.97
2023-04-13T22:31:13.078Z,3.72
2023-04-13T22:36:19.578Z,2.85
2023-04-13T22:41:20.062Z,3.58
2023-04-13T22:46:19.434Z,3.42
2023-04-13T22:51:18.222Z,3.40
2023-04-13T22:56:17.241Z,2.83
2023-04-13T23:01:17.481Z,3.10
2023-04-13T23:06:16.294Z,2.42
2023-04-13T23:11:15.173Z,3.53
2023-04-13T23:16:13.990Z,3.00
2023-04-13T23:21:14.557Z,2.70
2023-04-13T23:26:13.283Z,2.63
2023-04-13T23:31:12.149Z,2.55
2023-04-13T23:36:11.816Z,3.15
2023-04-13T23:41:12.236Z,2.92
2023-04-13T23:46:11.276Z,2.80
2023-04-13T23:51:10.065Z,3.40
2023-04-13T23:56:09.215Z,3.00
